Metar z połowy godziny Komunikat METAR ze strony awiacja.imgw.pl Metar Mil EPMB METAR EPMB 230800Z AUTO 27016KT 250V310 9999 NCD 08/M02 Q1017 RMK 082 050 ///=